Time,TemperatureF,DewpointF,PressureIn,WindDirection,WindDirectionDegrees,WindSpeedMPH,WindSpeedGustMPH,Humidity,HourlyPrecipIn,Conditions,Clouds,dailyrainin,SolarRadiationWatts/m^2,SoftwareType,DateUTC
2014-10-02 00:02:00,81.7,81.7,30.04,SE,133,0.0,0.0,0,0.00,,,0.00,0.0,meteohub,2014-10-02 04:02:00,
2014-10-02 00:07:00,81.7,81.7,30.04,SE,131,0.0,0.0,0,0.00,,,0.00,0.0,meteohub,2014-10-02 04:07:00,
2014-10-02 00:12:00,81.7,81.7,30.04,SE,133,0.0,0.0,0,0.00,,,0.00,0.0,meteohub,2014-10-02 04:12:00,
2014-10-02 00:17:00,81.7,81.7,30.03,SE,133,0.0,0.0,0,0.00,,,0.00,0.0,meteohub,2014-10-02 04:17:00,
2014-10-02 00:22:00,81.7,81.7,30.03,SE,133,0.0,0.0,0,0.00,,,0.00,0.0,meteohub,2014-10-02 04:22:00,
2014-10-02 00:27:00,81.7,81.7,30.03,SE,131,0.0,0.0,0,0.00,,,0.00,0.0,meteohub,2014-10-02 04:27:00,
2014-10-02 00:32:00,81.7,81.7,30.03,SE,133,0.0,0.0,0,0.00,,,0.00,0.0,meteohub,2014-10-02 04:32:00,
2014-10-02 00:37:00,81.3,81.3,30.03,SE,133,0.0,0.0,0,0.00,,,0.00,0.0,meteohub,2014-10-02 04:37:00,
2014-10-02 00:42:00,81.3,81.3,30.03,SE,134,0.0,0.0,0,0.00,,,0.00,0.0,meteohub,2014-10-02 04:42:00,
2014-10-02 00:47:00,81.3,81.3,30.03,SE,131,0.0,0.0,0,0.00,,,0.00,0.0,meteohub,2014-10-02 04:47:00,
2014-10-02 00:52:00,81.3,81.3,30.03,SE,133,0.0,0.0,0,0.00,,,0.00,0.0,meteohub,2014-10-02 04:52:00,
2014-10-02 00:57:00,81.1,81.1,30.03,SE,133,0.0,0.0,0,0.00,,,0.00,0.0,meteohub,2014-10-02 04:57:00,
2014-10-02 01:02:00,81.1,81.1,30.03,SE,133,0.0,0.0,0,0.00,,,0.00,0.0,meteohub,2014-10-02 05:02:00,
2014-10-02 01:07:00,81.1,81.1,30.03,SE,133,0.0,0.0,0,0.00,,,0.00,0.0,meteohub,2014-10-02 05:07:00,
2014-10-02 01:12:00,81.1,81.1,30.03,SE,133,0.0,0.0,0,0.00,,,0.00,0.0,meteohub,2014-10-02 05:12:00,
2014-10-02 01:17:00,81.1,81.1,30.02,SE,131,0.0,0.0,0,0.00,,,0.00,0.0,meteohub,2014-10-02 05:17:00,
2014-10-02 01:22:00,81.1,81.1,30.02,SE,133,0.0,0.0,0,0.00,,,0.00,0.0,meteohub,2014-10-02 05:22:00,
2014-10-02 01:27:00,81.0,81.0,30.02,SE,133,0.0,0.0,0,0.00,,,0.00,0.0,meteohub,2014-10-02 05:27:00,
2014-10-02 01:32:00,81.0,81.0,30.02,SE,133,0.0,0.0,0,0.00,,,0.00,0.0,meteohub,2014-10-02 05:32:00,
2014-10-02 01:37:00,80.8,80.8,30.02,SE,133,0.0,0.0,0,0.00,,,0.00,0.0,meteohub,2014-10-02 05:37:00,
2014-10-02 01:42:00,80.8,80.8,30.02,SE,133,0.0,0.0,0,0.00,,,0.00,0.0,meteohub,2014-10-02 05:42:00,
2014-10-02 01:47:00,80.4,80.4,30.02,SE,133,0.0,0.0,0,0.00,,,0.00,0.0,meteohub,2014-10-02 05:47:00,
2014-10-02 01:52:00,80.4,80.4,30.02,SE,131,0.0,0.0,0,0.00,,,0.00,0.0,meteohub,2014-10-02 05:52:00,
2014-10-02 01:57:00,80.4,80.4,30.02,SE,133,0.0,0.0,0,0.00,,,0.00,0.0,meteohub,2014-10-02 05:57:00,
2014-10-02 02:02:00,80.4,80.4,30.01,SE,133,0.0,0.0,0,0.00,,,0.00,0.0,meteohub,2014-10-02 06:02:00,
2014-10-02 02:07:00,80.4,80.4,30.01,SE,131,0.0,0.0,0,0.00,,,0.00,0.0,meteohub,2014-10-02 06:07:00,
2014-10-02 02:12:00,80.2,80.2,30.01,SE,133,0.0,0.0,0,0.00,,,0.00,0.0,meteohub,2014-10-02 06:12:00,
2014-10-02 02:17:00,80.2,80.2,30.01,SE,133,0.0,0.0,0,0.00,,,0.00,0.0,meteohub,2014-10-02 06:17:00,
2014-10-02 02:22:00,80.2,80.2,30.01,SE,133,0.0,0.0,0,0.00,,,0.00,0.0,meteohub,2014-10-02 06:22:00,
2014-10-02 02:27:00,80.2,80.2,30.01,SE,131,0.0,0.0,0,0.00,,,0.00,0.0,meteohub,2014-10-02 06:27:00,
2014-10-02 02:32:00,80.1,80.1,30.01,SE,131,0.0,0.0,0,0.00,,,0.00,0.0,meteohub,2014-10-02 06:32:00,
2014-10-02 02:37:00,80.1,80.1,30.01,SE,133,0.0,0.0,0,0.00,,,0.00,0.0,meteohub,2014-10-02 06:37:00,
2014-10-02 02:42:00,80.1,80.1,30.01,SE,131,0.0,0.0,0,0.00,,,0.00,0.0,meteohub,2014-10-02 06:42:00,
2014-10-02 02:47:00,80.1,80.1,30.00,SE,133,0.0,0.0,0,0.00,,,0.00,0.0,meteohub,2014-10-02 06:47:00,
2014-10-02 02:52:00,80.1,80.1,30.00,SE,133,0.0,0.0,0,0.00,,,0.00,0.0,meteohub,2014-10-02 06:52:00,
2014-10-02 02:57:00,80.1,80.1,30.00,SE,131,0.0,0.0,0,0.00,,,0.00,0.0,meteohub,2014-10-02 06:57:00,
2014-10-02 03:02:00,80.1,80.1,30.00,SE,134,0.0,0.0,0,0.00,,,0.00,0.0,meteohub,2014-10-02 07:02:00,
2014-10-02 03:07:00,79.9,79.9,30.00,SE,133,0.0,0.0,0,0.00,,,0.00,0.0,meteohub,2014-10-02 07:07:00,
2014-10-02 03:12:00,79.9,79.9,30.00,SE,133,0.0,0.0,0,0.00,,,0.00,0.0,meteohub,2014-10-02 07:12:00,
2014-10-02 03:17:00,79.9,79.9,30.00,SE,131,0.0,0.0,0,0.00,,,0.00,0.0,meteohub,2014-10-02 07:17:00,
2014-10-02 03:22:00,79.9,79.9,30.00,SE,133,0.0,0.0,0,0.00,,,0.00,0.0,meteohub,2014-10-02 07:22:00,
2014-10-02 03:27:00,79.9,79.9,30.00,SE,131,0.0,0.0,0,0.00,,,0.00,0.0,meteohub,2014-10-02 07:27:00,
2014-10-02 03:32:00,79.9,79.9,30.00,SE,133,0.0,0.0,0,0.00,,,0.00,0.0,meteohub,2014-10-02 07:32:00,
2014-10-02 03:37:00,79.9,79.9,30.00,SE,133,0.0,0.0,0,0.00,,,0.00,0.0,meteohub,2014-10-02 07:37:00,
2014-10-02 03:42:00,79.9,79.9,30.00,SE,133,0.0,0.0,0,0.00,,,0.00,0.0,meteohub,2014-10-02 07:42:00,
2014-10-02 03:47:00,79.9,79.9,30.00,SE,133,0.0,0.0,0,0.00,,,0.00,0.0,meteohub,2014-10-02 07:47:00,
2014-10-02 03:52:00,79.9,79.9,30.00,SE,134,0.0,0.0,0,0.00,,,0.00,0.0,meteohub,2014-10-02 07:52:00,
2014-10-02 03:57:00,79.9,79.9,30.00,SE,133,0.0,0.0,0,0.00,,,0.00,0.0,meteohub,2014-10-02 07:57:00,
2014-10-02 04:02:00,79.5,79.5,29.99,SE,133,0.0,0.0,0,0.00,,,0.00,0.0,meteohub,2014-10-02 08:02:00,
2014-10-02 04:07:00,79.5,79.5,29.99,SE,131,0.0,0.0,0,0.00,,,0.00,0.0,meteohub,2014-10-02 08:07:00,
2014-10-02 04:12:00,79.5,79.5,29.99,SE,133,0.0,0.0,0,0.00,,,0.00,0.0,meteohub,2014-10-02 08:12:00,
2014-10-02 04:17:00,79.5,79.5,30.00,SE,131,0.0,0.0,0,0.00,,,0.00,0.0,meteohub,2014-10-02 08:17:00,
2014-10-02 04:22:00,79.5,79.5,30.00,SE,133,0.0,0.0,0,0.00,,,0.00,0.0,meteohub,2014-10-02 08:22:00,
2014-10-02 04:27:00,79.5,79.5,30.00,SE,133,0.0,0.0,0,0.00,,,0.00,0.0,meteohub,2014-10-02 08:27:00,
2014-10-02 04:32:00,79.5,79.5,30.00,SE,133,0.0,0.0,0,0.00,,,0.00,0.0,meteohub,2014-10-02 08:32:00,
2014-10-02 04:37:00,79.5,79.5,30.00,SE,131,0.0,0.0,0,0.00,,,0.00,0.0,meteohub,2014-10-02 08:37:00,
2014-10-02 04:42:00,79.5,79.5,30.00,SE,133,0.0,0.0,0,0.00,,,0.00,0.0,meteohub,2014-10-02 08:42:00,
2014-10-02 04:47:00,79.5,79.5,30.01,SE,133,0.0,0.0,0,0.00,,,0.00,0.0,meteohub,2014-10-02 08:47:00,
2014-10-02 04:52:00,79.5,79.5,30.01,SE,133,0.0,0.0,0,0.00,,,0.00,0.0,meteohub,2014-10-02 08:52:00,
2014-10-02 04:57:00,79.5,79.5,30.01,SE,131,0.0,0.0,0,0.00,,,0.00,0.0,meteohub,2014-10-02 08:57:00,
2014-10-02 05:02:00,79.5,79.5,30.01,SE,133,0.0,0.0,0,0.00,,,0.00,0.0,meteohub,2014-10-02 09:02:00,
2014-10-02 05:07:00,79.5,79.5,30.01,SE,133,0.0,0.0,0,0.00,,,0.00,0.0,meteohub,2014-10-02 09:07:00,
2014-10-02 05:12:00,79.5,79.5,30.01,SE,133,0.0,0.0,0,0.00,,,0.00,0.0,meteohub,2014-10-02 09:12:00,
2014-10-02 05:17:00,79.3,79.3,30.02,SE,133,0.0,0.0,0,0.00,,,0.00,0.0,meteohub,2014-10-02 09:17:00,
2014-10-02 05:22:00,79.3,79.3,30.02,SE,133,0.0,0.0,0,0.00,,,0.00,0.0,meteohub,2014-10-02 09:22:00,
2014-10-02 05:27:00,79.3,79.3,30.02,SE,131,0.0,0.0,0,0.00,,,0.00,0.0,meteohub,2014-10-02 09:27:00,
2014-10-02 05:32:00,79.3,79.3,30.02,SE,131,0.0,0.0,0,0.00,,,0.00,0.0,meteohub,2014-10-02 09:32:00,
2014-10-02 05:37:00,79.3,79.3,30.02,SE,133,0.0,0.0,0,0.00,,,0.00,0.0,meteohub,2014-10-02 09:37:00,
2014-10-02 05:42:00,79.2,79.2,30.02,SE,131,0.0,0.0,0,0.00,,,0.00,0.0,meteohub,2014-10-02 09:42:00,
2014-10-02 05:47:00,79.2,79.2,30.02,SE,134,0.0,0.0,0,0.00,,,0.00,0.0,meteohub,2014-10-02 09:47:00,
2014-10-02 05:52:00,79.2,79.2,30.02,SE,133,0.0,0.0,0,0.00,,,0.00,0.0,meteohub,2014-10-02 09:52:00,
2014-10-02 05:57:00,79.2,79.2,30.02,SE,133,0.0,0.0,0,0.00,,,0.00,0.0,meteohub,2014-10-02 09:57:00,
2014-10-02 06:02:00,79.2,79.2,30.02,SE,133,0.0,0.0,0,0.00,,,0.00,0.0,meteohub,2014-10-02 10:02:00,
2014-10-02 06:07:00,79.0,79.0,30.02,SE,131,0.0,0.0,0,0.00,,,0.00,0.0,meteohub,2014-10-02 10:07:00,
2014-10-02 06:12:00,79.0,79.0,30.02,SE,131,0.0,0.0,0,0.00,,,0.00,0.0,meteohub,2014-10-02 10:12:00,
2014-10-02 06:17:00,79.0,79.0,30.03,SE,133,0.0,0.0,0,0.00,,,0.00,0.0,meteohub,2014-10-02 10:17:00,
2014-10-02 06:22:00,79.0,79.0,30.03,SE,133,0.0,0.0,0,0.00,,,0.00,5.0,meteohub,2014-10-02 10:22:00,
2014-10-02 06:27:00,79.0,79.0,30.03,SE,133,0.0,0.0,0,0.00,,,0.00,7.0,meteohub,2014-10-02 10:27:00,
2014-10-02 06:32:00,78.8,78.8,30.03,SE,133,0.0,0.0,0,0.00,,,0.00,18.0,meteohub,2014-10-02 10:32:00,
2014-10-02 06:37:00,78.8,78.8,30.03,SE,133,0.0,0.0,0,0.00,,,0.00,46.0,meteohub,2014-10-02 10:37:00,
2014-10-02 06:42:00,79.0,79.0,30.03,SE,133,0.0,0.0,0,0.00,,,0.00,49.0,meteohub,2014-10-02 10:42:00,
2014-10-02 06:47:00,79.2,79.2,30.03,SE,133,0.0,0.0,0,0.00,,,0.00,51.0,meteohub,2014-10-02 10:47:00,
2014-10-02 06:52:00,79.2,79.2,30.03,SE,133,0.0,0.0,0,0.00,,,0.00,40.0,meteohub,2014-10-02 10:52:00,
2014-10-02 06:57:00,79.3,79.3,30.03,SE,136,0.0,0.0,0,0.00,,,0.00,44.0,meteohub,2014-10-02 10:57:00,
2014-10-02 07:02:00,79.5,79.5,30.04,SE,134,0.0,1.0,0,0.00,,,0.00,28.0,meteohub,2014-10-02 11:02:00,
2014-10-02 07:07:00,79.5,79.5,30.04,SE,134,0.0,1.0,0,0.00,,,0.00,30.0,meteohub,2014-10-02 11:07:00,
2014-10-02 07:12:00,79.9,79.9,30.04,SE,134,0.0,3.0,0,0.00,,,0.00,33.0,meteohub,2014-10-02 11:12:00,
2014-10-02 07:17:00,80.1,80.1,30.04,SE,136,0.0,3.0,0,0.00,,,0.00,35.0,meteohub,2014-10-02 11:17:00,
2014-10-02 07:22:00,80.2,80.2,30.04,SE,134,0.0,3.0,0,0.00,,,0.00,39.0,meteohub,2014-10-02 11:22:00,
2014-10-02 07:27:00,80.4,80.4,30.04,SE,134,0.0,0.0,0,0.00,,,0.00,39.0,meteohub,2014-10-02 11:27:00,
2014-10-02 07:32:00,80.8,80.8,30.04,SE,134,0.0,0.0,0,0.00,,,0.00,39.0,meteohub,2014-10-02 11:32:00,
2014-10-02 07:37:00,81.0,81.0,30.04,SE,133,0.0,1.0,0,0.00,,,0.00,44.0,meteohub,2014-10-02 11:37:00,
2014-10-02 07:42:00,81.1,81.1,30.04,SE,136,0.0,1.0,0,0.00,,,0.00,155.0,meteohub,2014-10-02 11:42:00,
2014-10-02 07:47:00,81.3,81.3,30.04,SE,134,0.0,1.0,0,0.00,,,0.00,287.0,meteohub,2014-10-02 11:47:00,
2014-10-02 07:52:00,81.9,81.9,30.04,SE,136,0.0,0.0,0,0.00,,,0.00,317.0,meteohub,2014-10-02 11:52:00,
2014-10-02 07:57:00,82.4,82.4,30.04,SE,141,0.0,5.0,0,0.00,,,0.00,334.0,meteohub,2014-10-02 11:57:00,
2014-10-02 08:02:00,82.9,82.9,30.04,SE,141,0.0,6.0,0,0.00,,,0.00,364.0,meteohub,2014-10-02 12:02:00,
2014-10-02 08:07:00,83.5,83.5,30.04,SE,138,0.0,6.0,0,0.00,,,0.00,385.0,meteohub,2014-10-02 12:07:00,
2014-10-02 08:12:00,84.0,84.0,30.04,SE,144,0.0,8.0,0,0.00,,,0.00,405.0,meteohub,2014-10-02 12:12:00,
2014-10-02 08:17:00,84.6,84.6,30.05,South,181,0.0,8.0,0,0.00,,,0.00,424.0,meteohub,2014-10-02 12:17:00,
2014-10-02 08:22:00,84.9,84.9,30.05,SE,127,0.0,8.0,0,0.00,,,0.00,442.0,meteohub,2014-10-02 12:22:00,
2014-10-02 08:27:00,85.3,85.3,30.05,SE,127,0.0,7.0,0,0.00,,,0.00,459.0,meteohub,2014-10-02 12:27:00,
2014-10-02 08:32:00,85.6,85.6,30.05,South,176,7.0,7.0,0,0.00,,,0.00,477.0,meteohub,2014-10-02 12:32:00,
2014-10-02 08:37:00,85.8,85.8,30.05,SE,141,0.0,8.0,0,0.00,,,0.00,494.0,meteohub,2014-10-02 12:37:00,
2014-10-02 08:42:00,86.2,86.2,30.05,SSE,160,0.0,9.0,0,0.00,,,0.00,514.0,meteohub,2014-10-02 12:42:00,
2014-10-02 08:47:00,86.4,86.4,30.05,SE,126,6.0,9.0,0,0.00,,,0.00,531.0,meteohub,2014-10-02 12:47:00,
2014-10-02 08:52:00,86.5,86.5,30.05,ESE,123,0.0,9.0,0,0.00,,,0.00,545.0,meteohub,2014-10-02 12:52:00,
2014-10-02 08:57:00,86.7,86.7,30.05,SSE,152,0.0,8.0,0,0.00,,,0.00,540.0,meteohub,2014-10-02 12:57:00,
2014-10-02 09:02:00,87.3,87.3,30.06,SSW,198,5.0,8.0,0,0.00,,,0.00,500.0,meteohub,2014-10-02 13:02:00,
2014-10-02 09:07:00,87.4,87.4,30.06,South,176,0.0,11.0,0,0.00,,,0.00,457.0,meteohub,2014-10-02 13:07:00,
2014-10-02 09:12:00,87.3,87.3,30.06,SSW,193,2.0,13.0,0,0.00,,,0.00,398.0,meteohub,2014-10-02 13:12:00,
2014-10-02 09:17:00,87.3,87.3,30.06,South,186,1.0,13.0,0,0.00,,,0.00,449.0,meteohub,2014-10-02 13:17:00,
2014-10-02 09:22:00,87.4,87.4,30.06,SE,134,0.0,13.0,0,0.00,,,0.00,341.0,meteohub,2014-10-02 13:22:00,
2014-10-02 09:27:00,87.6,87.6,30.06,ESE,119,0.0,8.0,0,0.00,,,0.00,725.0,meteohub,2014-10-02 13:27:00,
2014-10-02 09:32:00,88.0,88.0,30.06,SSE,167,0.0,8.0,0,0.00,,,0.00,732.0,meteohub,2014-10-02 13:32:00,
2014-10-02 09:37:00,88.0,88.0,30.06,SE,140,0.0,7.0,0,0.00,,,0.00,246.0,meteohub,2014-10-02 13:37:00,
2014-10-02 09:42:00,88.0,88.0,30.06,SE,133,3.0,10.0,0,0.00,,,0.00,202.0,meteohub,2014-10-02 13:42:00,
2014-10-02 09:47:00,87.8,87.8,30.06,East,89,0.0,10.0,0,0.00,,,0.00,183.0,meteohub,2014-10-02 13:47:00,
2014-10-02 09:52:00,87.8,87.8,30.06,ESE,112,3.0,10.0,0,0.00,,,0.00,188.0,meteohub,2014-10-02 13:52:00,